createdAt,value
2022-07-28T00:00:34.131Z,99.90
2022-07-28T00:03:03.100Z,99.90
2022-07-28T00:05:31.853Z,99.90
2022-07-28T00:08:04.667Z,99.90
2022-07-28T00:10:33.566Z,99.90
2022-07-28T00:13:02.243Z,99.90
2022-07-28T00:15:32.729Z,99.90
2022-07-28T00:18:02.023Z,99.90
2022-07-28T00:20:31.186Z,99.90
2022-07-28T00:22:59.877Z,99.90
2022-07-28T00:25:29.973Z,99.90
2022-07-28T00:27:58.612Z,99.90
2022-07-28T00:30:27.300Z,99.90
2022-07-28T00:32:56.119Z,99.90
2022-07-28T00:35:30.762Z,99.90
2022-07-28T00:38:01.176Z,99.90
2022-07-28T00:40:45.490Z,99.90
2022-07-28T00:43:14.264Z,99.90
2022-07-28T00:45:43.060Z,99.90
2022-07-28T00:48:11.838Z,99.90
2022-07-28T00:50:41.485Z,99.90
2022-07-28T00:53:10.258Z,99.90
2022-07-28T00:56:03.536Z,99.90
2022-07-28T00:58:31.275Z,99.90
2022-07-28T01:01:00.383Z,99.90
2022-07-28T01:03:30.536Z,99.90
2022-07-28T01:06:07.575Z,99.90
2022-07-28T01:08:49.509Z,99.90
2022-07-28T01:11:27.471Z,99.90
2022-07-28T01:14:08.988Z,99.90
2022-07-28T01:16:43.871Z,99.90
2022-07-28T01:19:24.361Z,99.90
2022-07-28T01:21:55.368Z,99.90
2022-07-28T01:24:28.851Z,99.90
2022-07-28T01:27:04.040Z,99.90
2022-07-28T01:29:55.342Z,99.90
2022-07-28T01:32:27.666Z,99.90
2022-07-28T01:35:01.131Z,99.90
2022-07-28T01:37:35.328Z,99.90
2022-07-28T01:40:08.448Z,99.90
2022-07-28T01:42:41.092Z,99.90
2022-07-28T01:45:12.041Z,99.90
2022-07-28T01:47:44.129Z,99.90
2022-07-28T01:50:15.975Z,99.90
2022-07-28T01:52:47.469Z,99.90
2022-07-28T01:55:18.517Z,99.90
2022-07-28T01:57:49.044Z,99.90
2022-07-28T02:00:18.816Z,99.90
2022-07-28T02:02:51.261Z,99.90
2022-07-28T02:05:23.054Z,99.90
2022-07-28T02:07:54.726Z,99.90
2022-07-28T02:10:24.261Z,99.90
2022-07-28T02:12:54.117Z,99.90
2022-07-28T02:15:23.900Z,99.90
2022-07-28T02:17:54.669Z,99.90
2022-07-28T02:20:24.808Z,99.90
2022-07-28T02:22:54.712Z,99.90
2022-07-28T02:25:23.536Z,99.90
2022-07-28T02:27:56.506Z,99.90
2022-07-28T02:30:34.103Z,99.90
2022-07-28T02:33:10.162Z,99.90
2022-07-28T02:35:44.957Z,99.90
2022-07-28T02:38:20.495Z,99.90
2022-07-28T02:40:53.281Z,99.90
2022-07-28T02:43:49.383Z,99.90
2022-07-28T02:46:23.560Z,99.90
2022-07-28T02:49:00.923Z,99.90
2022-07-28T02:51:30.689Z,99.90
2022-07-28T02:54:01.008Z,99.90
2022-07-28T02:56:30.485Z,99.90
2022-07-28T02:59:00.009Z,99.90
2022-07-28T03:01:29.084Z,99.90
2022-07-28T03:04:01.214Z,99.90
2022-07-28T03:06:29.965Z,99.90
2022-07-28T03:08:58.723Z,99.90
2022-07-28T03:11:27.998Z,99.90
2022-07-28T03:13:56.756Z,99.90
2022-07-28T03:16:25.497Z,99.90
2022-07-28T03:18:54.359Z,99.90
2022-07-28T03:21:25.114Z,99.90
2022-07-28T03:23:54.195Z,99.90
2022-07-28T03:26:28.849Z,99.90
2022-07-28T03:28:58.932Z,99.90
2022-07-28T03:31:28.866Z,99.90
2022-07-28T03:33:58.922Z,99.90
2022-07-28T03:36:40.115Z,99.90
2022-07-28T03:39:12.230Z,99.90
2022-07-28T03:41:43.531Z,99.90
2022-07-28T03:44:13.999Z,99.90
2022-07-28T03:46:56.733Z,99.90
2022-07-28T03:49:25.552Z,99.90
2022-07-28T03:51:55.705Z,99.90
2022-07-28T03:54:24.471Z,99.90
2022-07-28T03:56:53.190Z,99.90
2022-07-28T03:59:21.804Z,99.90
2022-07-28T04:01:50.765Z,99.90
2022-07-28T04:04:19.527Z,99.90
2022-07-28T04:06:48.374Z,99.90
2022-07-28T04:09:19.186Z,99.90
2022-07-28T04:11:47.904Z,99.90
2022-07-28T04:14:18.359Z,99.90
2022-07-28T04:16:47.332Z,99.90
2022-07-28T04:19:16.546Z,99.90
2022-07-28T04:21:45.233Z,99.90
2022-07-28T04:24:14.263Z,99.90
2022-07-28T04:26:44.658Z,99.90
2022-07-28T04:29:13.901Z,99.90
2022-07-28T04:31:52.169Z,99.90
2022-07-28T04:34:20.904Z,99.90
2022-07-28T04:36:51.017Z,99.90
2022-07-28T04:39:19.765Z,99.90
2022-07-28T04:41:51.112Z,99.90
2022-07-28T04:44:20.319Z,99.90
2022-07-28T04:46:49.143Z,99.90
2022-07-28T04:49:17.878Z,99.90
2022-07-28T04:51:50.877Z,99.90
2022-07-28T04:54:24.565Z,99.90
2022-07-28T04:56:56.549Z,99.90
2022-07-28T04:59:25.247Z,99.90
2022-07-28T05:01:54.708Z,99.90
2022-07-28T05:04:23.623Z,99.90
2022-07-28T05:06:56.920Z,99.90
2022-07-28T05:09:25.742Z,99.90
2022-07-28T05:11:56.046Z,99.90
2022-07-28T05:14:24.803Z,99.90
2022-07-28T05:16:53.747Z,99.90
2022-07-28T05:19:22.572Z,99.90
2022-07-28T05:21:51.273Z,99.90
2022-07-28T05:24:20.003Z,99.90
2022-07-28T05:26:48.606Z,99.90
2022-07-28T05:29:18.728Z,99.90
2022-07-28T05:31:47.528Z,99.90
2022-07-28T05:34:16.797Z,99.90
2022-07-28T05:36:46.093Z,99.90
2022-07-28T05:39:15.694Z,99.90
2022-07-28T05:41:44.407Z,99.90
2022-07-28T05:44:13.777Z,99.90
2022-07-28T05:46:44.104Z,99.90
2022-07-28T05:49:12.893Z,99.90
2022-07-28T05:51:42.025Z,99.90
2022-07-28T05:54:10.985Z,99.90
2022-07-28T05:56:39.812Z,99.90
2022-07-28T05:59:10.447Z,99.90
2022-07-28T06:01:39.481Z,99.90
2022-07-28T06:04:27.177Z,99.90
2022-07-28T06:06:56.870Z,99.90
2022-07-28T06:09:25.589Z,99.90
2022-07-28T06:11:54.232Z,99.90
2022-07-28T06:14:23.219Z,99.90
2022-07-28T06:16:52.275Z,99.90
2022-07-28T06:19:22.443Z,99.90
2022-07-28T06:21:52.735Z,99.90
2022-07-28T06:24:21.656Z,99.90
2022-07-28T06:26:50.307Z,99.90
2022-07-28T06:29:19.066Z,99.90
2022-07-28T06:31:47.705Z,99.90
2022-07-28T06:34:16.828Z,99.90
2022-07-28T06:36:47.274Z,99.90
2022-07-28T06:39:16.024Z,99.90
2022-07-28T06:41:44.878Z,99.90
2022-07-28T06:44:14.989Z,99.90
2022-07-28T06:46:43.901Z,97.20
2022-07-28T06:49:12.995Z,94.40
2022-07-28T06:51:42.030Z,96.50
2022-07-28T06:54:12.393Z,94.60
2022-07-28T06:56:41.403Z,92.00
2022-07-28T06:59:11.189Z,94.30
2022-07-28T07:01:39.940Z,93.70
2022-07-28T07:04:09.422Z,97.40
2022-07-28T07:06:38.360Z,99.90
2022-07-28T07:09:07.103Z,99.90
2022-07-28T07:11:38.420Z,99.90
2022-07-28T07:14:07.240Z,99.90
2022-07-28T07:16:35.928Z,99.90
2022-07-28T07:19:06.921Z,98.40
2022-07-28T07:21:35.824Z,98.80
2022-07-28T07:24:04.601Z,99.90
2022-07-28T07:26:33.379Z,99.90
2022-07-28T07:29:03.493Z,94.30
2022-07-28T07:31:33.551Z,98.20
2022-07-28T07:34:02.249Z,97.30
2022-07-28T07:36:31.112Z,97.90
2022-07-28T07:38:59.989Z,99.90
2022-07-28T07:41:28.608Z,99.80
2022-07-28T07:43:59.538Z,97.60
2022-07-28T07:46:29.744Z,94.00
2022-07-28T07:48:58.588Z,99.80
2022-07-28T07:51:27.458Z,99.90
2022-07-28T07:53:56.064Z,94.80
2022-07-28T07:56:24.902Z,94.10
2022-07-28T07:58:56.821Z,97.50
2022-07-28T08:01:26.066Z,99.90
2022-07-28T08:03:57.030Z,99.60
2022-07-28T08:06:27.921Z,76.50
2022-07-28T08:08:58.012Z,82.90
2022-07-28T08:11:26.724Z,86.20
2022-07-28T08:13:55.379Z,90.50
2022-07-28T08:16:24.178Z,89.10
2022-07-28T08:18:53.780Z,99.90
2022-07-28T08:21:23.862Z,99.90
2022-07-28T08:23:52.800Z,92.50
2022-07-28T08:26:21.425Z,82.90
2022-07-28T08:28:50.476Z,99.90
2022-07-28T08:31:22.165Z,99.90
2022-07-28T08:33:53.792Z,99.90
2022-07-28T08:36:24.870Z,85.90
2022-07-28T08:38:53.557Z,96.80
2022-07-28T08:41:34.112Z,89.00
2022-07-28T08:44:04.144Z,84.90
2022-07-28T08:46:37.355Z,74.30
2022-07-28T08:49:09.735Z,79.20
2022-07-28T08:51:42.796Z,59.60
2022-07-28T08:54:14.595Z,40.30
2022-07-28T08:56:47.863Z,64.60
2022-07-28T08:59:17.280Z,86.20
2022-07-28T09:01:48.140Z,65.20
2022-07-28T09:04:18.101Z,73.60
2022-07-28T09:06:49.232Z,88.60
2022-07-28T09:09:18.226Z,71.40
2022-07-28T09:11:46.852Z,77.00
2022-07-28T09:14:15.828Z,68.10
2022-07-28T09:16:45.157Z,71.10
2022-07-28T09:19:13.966Z,86.50
2022-07-28T09:21:44.514Z,82.80
2022-07-28T09:24:34.929Z,71.20
2022-07-28T09:27:06.973Z,53.50
2022-07-28T09:29:37.470Z,79.60
2022-07-28T09:32:06.857Z,66.40
2022-07-28T09:34:42.691Z,75.00
2022-07-28T09:37:24.783Z,58.40
2022-07-28T09:39:59.430Z,52.40
2022-07-28T09:42:45.894Z,78.70
2022-07-28T09:45:23.756Z,83.80
2022-07-28T09:48:11.253Z,79.30
2022-07-28T09:50:41.795Z,45.70
2022-07-28T09:53:28.786Z,36.10
2022-07-28T09:56:02.232Z,46.80
2022-07-28T09:58:31.933Z,76.00
2022-07-28T10:01:07.197Z,37.30
2022-07-28T10:03:37.238Z,51.90
2022-07-28T10:06:08.633Z,65.60
2022-07-28T10:08:45.759Z,50.80
2022-07-28T10:11:17.933Z,53.50
2022-07-28T10:13:54.513Z,49.60
2022-07-28T10:16:24.793Z,42.00
2022-07-28T10:18:53.940Z,57.20
2022-07-28T10:21:25.017Z,56.40
2022-07-28T10:23:56.049Z,87.30
2022-07-28T10:26:32.373Z,62.50
2022-07-28T10:29:06.699Z,52.40
2022-07-28T10:31:42.332Z,52.80
2022-07-28T10:34:16.534Z,56.30
2022-07-28T10:36:46.567Z,56.30
2022-07-28T10:39:21.454Z,55.60
2022-07-28T10:41:52.485Z,60.00
2022-07-28T10:44:21.961Z,55.70
2022-07-28T10:46:51.997Z,68.00
2022-07-28T10:49:21.173Z,65.60
2022-07-28T10:52:15.431Z,58.90
2022-07-28T10:54:48.371Z,55.00
2022-07-28T10:57:19.046Z,73.90
2022-07-28T11:00:14.364Z,46.20
2022-07-28T11:02:55.537Z,57.10
2022-07-28T11:05:35.559Z,45.70
2022-07-28T11:08:07.563Z,46.20
2022-07-28T11:10:48.036Z,54.40
2022-07-28T11:13:33.024Z,34.30
2022-07-28T11:16:20.350Z,32.50
2022-07-28T11:19:42.374Z,48.00
2022-07-28T11:22:25.177Z,42.40
2022-07-28T11:25:18.713Z,36.20
2022-07-28T11:28:07.063Z,34.90
2022-07-28T11:30:54.508Z,36.00
2022-07-28T11:33:25.245Z,36.10
2022-07-28T11:35:56.601Z,52.60
2022-07-28T11:38:25.714Z,47.20
2022-07-28T11:40:56.301Z,56.40
2022-07-28T11:43:39.899Z,55.90
2022-07-28T11:46:38.448Z,63.50
2022-07-28T11:49:19.792Z,38.60
2022-07-28T11:52:11.424Z,46.90
2022-07-28T11:54:41.857Z,33.00
2022-07-28T11:57:12.072Z,51.30
2022-07-28T12:00:01.114Z,59.30
2022-07-28T12:02:33.526Z,52.60
2022-07-28T12:05:08.113Z,43.10
2022-07-28T12:07:39.322Z,61.40
2022-07-28T12:10:51.842Z,54.90
2022-07-28T12:13:15.605Z,42.60
2022-07-28T12:15:52.222Z,49.40
2022-07-28T12:18:24.889Z,37.50
2022-07-28T12:20:55.433Z,43.10
2022-07-28T12:23:39.026Z,46.70
2022-07-28T12:26:29.817Z,32.30
2022-07-28T12:29:01.084Z,47.00
2022-07-28T12:31:33.524Z,43.20
2022-07-28T12:34:06.423Z,46.70
2022-07-28T12:36:35.611Z,41.80
2022-07-28T12:39:10.826Z,47.70
2022-07-28T12:41:41.573Z,47.60
2022-07-28T12:44:11.546Z,45.80
2022-07-28T12:46:40.448Z,47.00
2022-07-28T12:49:21.949Z,47.10
2022-07-28T12:51:50.704Z,27.90
2022-07-28T12:54:19.313Z,32.90
2022-07-28T12:56:50.066Z,42.90
2022-07-28T12:59:20.005Z,35.10
2022-07-28T13:01:51.486Z,40.50
2022-07-28T13:04:44.420Z,52.90
2022-07-28T13:07:15.526Z,54.20
2022-07-28T13:09:59.899Z,53.50
2022-07-28T13:12:31.130Z,51.70
2022-07-28T13:15:01.482Z,45.90
2022-07-28T13:17:43.332Z,53.20
2022-07-28T13:20:14.401Z,55.70
2022-07-28T13:22:45.742Z,45.00
2022-07-28T13:25:15.514Z,52.20
2022-07-28T13:27:44.099Z,66.20
2022-07-28T13:30:13.579Z,53.40
2022-07-28T13:32:42.372Z,52.40
2022-07-28T13:35:14.993Z,63.50
2022-07-28T13:37:44.485Z,56.00
2022-07-28T13:40:14.099Z,67.20
2022-07-28T13:42:53.308Z,74.20
2022-07-28T13:45:29.995Z,70.50
2022-07-28T13:47:59.174Z,65.00
2022-07-28T13:50:29.245Z,79.00
2022-07-28T13:52:58.152Z,77.90
2022-07-28T13:55:27.579Z,80.50
2022-07-28T13:57:56.782Z,76.30
2022-07-28T14:00:25.884Z,81.10
2022-07-28T14:02:54.589Z,78.00
2022-07-28T14:05:23.356Z,74.30
2022-07-28T14:07:53.590Z,85.20
2022-07-28T14:10:26.676Z,81.20
2022-07-28T14:12:56.402Z,92.00
2022-07-28T14:15:25.082Z,80.00
2022-07-28T14:17:53.871Z,76.40
2022-07-28T14:20:22.786Z,75.60
2022-07-28T14:22:53.909Z,72.80
2022-07-28T14:25:22.793Z,67.10
2022-07-28T14:27:53.859Z,71.60
2022-07-28T14:30:26.093Z,69.90
2022-07-28T14:32:55.652Z,73.70
2022-07-28T14:35:25.021Z,78.40
2022-07-28T14:38:42.042Z,72.30
2022-07-28T14:40:43.823Z,76.20
2022-07-28T14:43:12.490Z,66.10
2022-07-28T14:46:00.661Z,64.20
2022-07-28T14:48:41.584Z,63.70
2022-07-28T14:51:12.565Z,71.30
2022-07-28T14:53:49.849Z,69.70
2022-07-28T14:56:23.412Z,67.30
2022-07-28T14:58:52.215Z,65.90
2022-07-28T15:01:20.864Z,59.20
2022-07-28T15:03:50.198Z,57.20
2022-07-28T15:06:19.021Z,60.10
2022-07-28T15:08:49.071Z,59.70
2022-07-28T15:11:17.714Z,59.00
2022-07-28T15:13:46.447Z,61.80
2022-07-28T15:16:15.245Z,67.30
2022-07-28T15:18:44.907Z,56.80
2022-07-28T15:21:17.217Z,58.50
2022-07-28T15:23:46.020Z,63.70
2022-07-28T15:26:16.423Z,57.80
2022-07-28T15:28:46.931Z,60.70
2022-07-28T15:31:16.144Z,66.50
2022-07-28T15:33:48.438Z,62.20
2022-07-28T15:36:25.208Z,67.10
2022-07-28T15:38:54.797Z,64.10
2022-07-28T15:41:25.377Z,59.10
2022-07-28T15:43:53.997Z,69.60
2022-07-28T15:46:22.686Z,59.60
2022-07-28T15:48:54.682Z,61.70
2022-07-28T15:51:26.051Z,63.00
2022-07-28T15:53:56.476Z,60.30
2022-07-28T15:56:28.514Z,61.30
2022-07-28T15:58:57.836Z,64.90
2022-07-28T16:01:27.789Z,68.20
2022-07-28T16:03:57.441Z,67.00
2022-07-28T16:06:27.289Z,61.10
2022-07-28T16:08:55.914Z,65.90
2022-07-28T16:11:26.101Z,63.10
2022-07-28T16:13:54.834Z,62.20
2022-07-28T16:16:23.517Z,65.60
2022-07-28T16:18:54.934Z,63.20
2022-07-28T16:21:27.841Z,68.70
2022-07-28T16:23:56.471Z,68.90
2022-07-28T16:26:27.341Z,62.80
2022-07-28T16:28:56.052Z,65.70
2022-07-28T16:31:24.796Z,68.20
2022-07-28T16:33:53.415Z,70.70
2022-07-28T16:36:22.219Z,69.60
2022-07-28T16:38:50.911Z,68.90
2022-07-28T16:41:19.505Z,69.20
2022-07-28T16:43:49.653Z,69.20
2022-07-28T16:46:20.167Z,69.00
2022-07-28T16:48:49.203Z,71.10
2022-07-28T16:51:17.878Z,70.50
2022-07-28T16:53:49.813Z,73.90
2022-07-28T16:56:18.597Z,70.80
2022-07-28T16:58:48.903Z,68.50
2022-07-28T17:01:17.691Z,63.70
2022-07-28T17:03:48.460Z,64.70
2022-07-28T17:06:17.594Z,68.00
2022-07-28T17:08:46.189Z,64.30
2022-07-28T17:11:15.156Z,66.70
2022-07-28T17:13:45.582Z,67.90
2022-07-28T17:16:16.029Z,70.90
2022-07-28T17:18:44.715Z,67.00
2022-07-28T17:21:13.421Z,63.50
2022-07-28T17:23:42.094Z,63.80
2022-07-28T17:29:00.413Z,62.80
2022-07-28T17:31:33.706Z,65.30
2022-07-28T17:34:02.782Z,71.40
2022-07-28T17:37:14.893Z,72.20
2022-07-28T17:40:04.746Z,72.40
2022-07-28T17:42:34.470Z,70.60
2022-07-28T17:45:03.333Z,71.00
2022-07-28T17:47:36.115Z,72.80
2022-07-28T17:50:07.473Z,74.30
2022-07-28T17:52:36.284Z,75.00
2022-07-28T17:55:24.050Z,75.90
2022-07-28T17:57:53.082Z,70.40
2022-07-28T18:00:22.434Z,75.70
2022-07-28T18:02:52.656Z,75.60
2022-07-28T18:05:21.789Z,73.20
2022-07-28T18:07:52.846Z,73.90
2022-07-28T18:10:27.250Z,75.30
2022-07-28T18:12:56.200Z,73.60
2022-07-28T18:15:24.957Z,72.10
2022-07-28T18:17:56.131Z,73.10
2022-07-28T18:20:25.641Z,73.30
2022-07-28T18:22:54.385Z,73.60
2022-07-28T18:25:23.218Z,74.00
2022-07-28T18:27:52.063Z,75.80
2022-07-28T18:30:20.979Z,76.20
2022-07-28T18:32:50.008Z,76.10
2022-07-28T18:35:21.265Z,76.70
2022-07-28T18:37:50.995Z,74.20
2022-07-28T18:40:21.685Z,74.40
2022-07-28T18:42:51.872Z,76.00
2022-07-28T18:45:21.288Z,72.50
2022-07-28T18:47:50.027Z,73.10
2022-07-28T18:50:30.926Z,74.10
2022-07-28T18:53:01.245Z,74.40
2022-07-28T18:55:30.330Z,74.10
2022-07-28T18:57:59.048Z,74.20
2022-07-28T19:00:27.959Z,75.60
2022-07-28T19:02:56.775Z,77.10
2022-07-28T19:05:27.173Z,76.80
2022-07-28T19:08:06.362Z,76.40
2022-07-28T19:10:35.122Z,76.90
2022-07-28T19:13:05.360Z,78.00
2022-07-28T19:15:39.246Z,77.70
2022-07-28T19:18:09.932Z,76.80
2022-07-28T19:20:42.649Z,76.20
2022-07-28T19:23:11.606Z,76.30
2022-07-28T19:25:40.620Z,76.50
2022-07-28T19:28:09.519Z,76.80
2022-07-28T19:30:38.884Z,76.00
2022-07-28T19:33:07.649Z,77.50
2022-07-28T19:35:36.465Z,77.90
2022-07-28T19:38:06.721Z,77.90
2022-07-28T19:40:36.189Z,78.50
2022-07-28T19:43:05.178Z,78.00
2022-07-28T19:45:34.002Z,78.80
2022-07-28T19:48:03.900Z,78.60
2022-07-28T19:50:32.924Z,78.40
2022-07-28T19:53:01.962Z,78.00
2022-07-28T19:59:32.201Z,78.40
2022-07-28T20:02:01.868Z,78.20
2022-07-28T20:04:30.645Z,78.80
2022-07-28T20:06:59.378Z,79.60
2022-07-28T20:09:28.298Z,79.00
2022-07-28T20:11:58.468Z,78.90
2022-07-28T20:14:27.821Z,79.40
2022-07-28T20:16:58.981Z,79.10
2022-07-28T20:19:27.805Z,78.80
2022-07-28T20:21:57.395Z,79.30
2022-07-28T20:24:26.039Z,79.50
2022-07-28T20:26:55.029Z,80.10
2022-07-28T20:29:23.957Z,80.30
2022-07-28T20:31:52.611Z,80.20
2022-07-28T20:34:22.665Z,80.10
2022-07-28T20:36:53.521Z,80.60
2022-07-28T20:39:43.851Z,79.80
2022-07-28T20:42:11.252Z,80.30
2022-07-28T20:44:40.422Z,80.50
2022-07-28T20:47:09.147Z,80.80
2022-07-28T20:49:39.644Z,80.20
2022-07-28T20:52:08.315Z,80.80
2022-07-28T20:54:37.104Z,81.10
2022-07-28T20:57:06.170Z,81.70
2022-07-28T20:59:34.910Z,80.90
2022-07-28T21:02:03.745Z,78.10
2022-07-28T21:04:32.671Z,79.50
2022-07-28T21:07:04.210Z,80.70
2022-07-28T21:09:33.139Z,80.90
2022-07-28T21:12:01.855Z,81.10
2022-07-28T21:14:32.408Z,81.80
2022-07-28T21:17:01.170Z,81.90
2022-07-28T21:19:30.257Z,82.70
2022-07-28T21:21:58.960Z,83.70
2022-07-28T21:24:29.152Z,79.30
2022-07-28T21:26:57.894Z,73.10
2022-07-28T21:32:04.125Z,66.70
2022-07-28T21:34:35.950Z,66.90
2022-07-28T21:37:06.107Z,67.30
2022-07-28T21:39:36.862Z,71.10
2022-07-28T21:42:08.434Z,68.00
2022-07-28T21:44:38.191Z,66.90
2022-07-28T21:47:07.362Z,67.60
2022-07-28T21:49:36.677Z,70.90
2022-07-28T21:52:05.876Z,75.00
2022-07-28T21:54:35.983Z,76.70
2022-07-28T21:57:22.475Z,74.80
2022-07-28T21:59:54.449Z,76.30
2022-07-28T22:02:24.027Z,75.80
2022-07-28T22:04:53.191Z,73.20
2022-07-28T22:07:21.945Z,75.50
2022-07-28T22:09:52.202Z,77.00
2022-07-28T22:12:21.008Z,75.70
2022-07-28T22:14:49.723Z,76.10
2022-07-28T22:17:19.335Z,74.40
2022-07-28T22:19:48.067Z,72.40
2022-07-28T22:22:18.578Z,74.30
2022-07-28T22:24:47.369Z,75.70
2022-07-28T22:27:17.720Z,75.50
2022-07-28T22:29:50.105Z,74.40
2022-07-28T22:32:26.694Z,74.30
2022-07-28T22:34:58.312Z,72.90
2022-07-28T22:37:27.257Z,69.40
2022-07-28T22:39:55.995Z,67.40
2022-07-28T22:42:26.311Z,64.80
2022-07-28T22:44:55.141Z,64.70
2022-07-28T22:47:23.863Z,63.70
2022-07-28T22:49:54.020Z,65.20
2022-07-28T22:52:26.309Z,64.20
2022-07-28T22:57:43.455Z,62.80
2022-07-28T23:00:12.943Z,62.30
2022-07-28T23:02:41.772Z,62.30
2022-07-28T23:05:11.209Z,62.30
2022-07-28T23:07:57.102Z,61.70
2022-07-28T23:10:26.519Z,63.20
2022-07-28T23:12:58.711Z,63.80
2022-07-28T23:15:39.678Z,63.40
2022-07-28T23:18:10.768Z,64.20
2022-07-28T23:20:40.479Z,63.50
2022-07-28T23:23:09.273Z,64.60
2022-07-28T23:25:40.626Z,63.30
2022-07-28T23:28:11.066Z,63.70
2022-07-28T23:30:40.041Z,62.20
2022-07-28T23:33:08.999Z,63.20
2022-07-28T23:35:44.682Z,64.40
2022-07-28T23:38:13.456Z,64.10
2022-07-28T23:40:42.251Z,63.50
2022-07-28T23:43:12.491Z,63.60
2022-07-28T23:45:41.369Z,63.40
2022-07-28T23:48:10.343Z,63.80
2022-07-28T23:50:39.119Z,63.90
2022-07-28T23:53:07.928Z,63.80
2022-07-28T23:55:36.906Z,63.20
2022-07-28T23:58:05.712Z,63.20
